Forside
METAR-TAF:

METAR-TAF

Lufthavne :

Cranfield, England

Breddekreds: 52-04N, længdekreds: 000-37W, højde: 111 m

Aktuelle vejr

Denne rapport blev lavet for 12 timer og 0 minutter siden, kl. 14:50 UTC
Vind 10 kt fra vestnordvest, varierende mellem vestsydvest og nordvest
Temperatur 18°C
Fugtighed 56%
Tryk 1030 hPa
Sigt 10 km eller mere
Brudte skyer i en højde af 4200 ft

METAR: EGTC 241450Z 30010KT 250V320 9999 BKN042 18/09 Q1030

Tid: 03:50 (02:50 UTC)

Vejrudsigter

Denne rapport blev lavet for 18 timer og 27 minutter siden, kl. 08:23 UTC
Foreløbig gælder fra 24 på 08 UTC til 24 på 16 UTC
Vind 14 kt fra vest
Sigt 10 km eller mere
Spredte skyer i en højde af 4000 ft

TAF: EGTC 240823Z 2408/2416 28014KT 9999 SCT040

Vejrobservationer og prognoser fra mere end 4000 lufthavne (METAR og TAF).

De gule og røde prikker repræsenterer de meteorologiske stationer.

Flyt musen over at se navnet på stationen.

Så klik over at se vejr observationer og prognoser.

At skifte det kort: Klik på de grønne knapper med et sort kors for at zoome ind; på den grønne knap med en bindestreg for at zoome ud; eller på de grønne pile for tilstødende kort.


METAR-TAF: